sensor_id;sensor_type;location;lat;lon;timestamp;P1;durP1;ratioP1;P2;durP2;ratioP2
21168;SDS011;10742;51.816;8.662;2023-02-02T00:02:49;19.20;;;2.73;;
21168;SDS011;10742;51.816;8.662;2023-02-02T00:05:52;11.40;;;2.50;;
21168;SDS011;10742;51.816;8.662;2023-02-02T00:08:55;18.60;;;2.70;;
21168;SDS011;10742;51.816;8.662;2023-02-02T00:12:00;18.80;;;3.00;;
21168;SDS011;10742;51.816;8.662;2023-02-02T00:15:02;11.60;;;3.07;;
21168;SDS011;10742;51.816;8.662;2023-02-02T00:18:05;16.17;;;3.23;;
21168;SDS011;10742;51.816;8.662;2023-02-02T00:21:07;13.57;;;2.43;;
21168;SDS011;10742;51.816;8.662;2023-02-02T00:24:11;11.53;;;2.27;;
21168;SDS011;10742;51.816;8.662;2023-02-02T00:27:15;13.67;;;2.00;;
21168;SDS011;10742;51.816;8.662;2023-02-02T00:30:18;10.30;;;2.30;;
21168;SDS011;10742;51.816;8.662;2023-02-02T00:33:20;13.10;;;2.73;;
21168;SDS011;10742;51.816;8.662;2023-02-02T00:36:24;18.47;;;3.33;;
21168;SDS011;10742;51.816;8.662;2023-02-02T00:39:26;12.33;;;2.73;;
21168;SDS011;10742;51.816;8.662;2023-02-02T00:42:29;18.83;;;2.90;;
21168;SDS011;10742;51.816;8.662;2023-02-02T00:45:31;14.33;;;2.43;;
21168;SDS011;10742;51.816;8.662;2023-02-02T00:48:33;13.43;;;2.20;;
21168;SDS011;10742;51.816;8.662;2023-02-02T00:51:36;15.53;;;2.60;;
21168;SDS011;10742;51.816;8.662;2023-02-02T00:54:39;15.77;;;2.73;;
21168;SDS011;10742;51.816;8.662;2023-02-02T00:57:41;12.07;;;2.20;;
21168;SDS011;10742;51.816;8.662;2023-02-02T01:00:45;15.97;;;2.70;;
21168;SDS011;10742;51.816;8.662;2023-02-02T01:03:47;11.07;;;2.17;;
21168;SDS011;10742;51.816;8.662;2023-02-02T01:06:51;14.43;;;2.33;;
21168;SDS011;10742;51.816;8.662;2023-02-02T01:09:53;15.47;;;2.50;;
21168;SDS011;10742;51.816;8.662;2023-02-02T01:12:56;14.40;;;2.40;;
21168;SDS011;10742;51.816;8.662;2023-02-02T01:15:58;12.97;;;2.27;;
21168;SDS011;10742;51.816;8.662;2023-02-02T01:19:01;12.97;;;2.20;;
21168;SDS011;10742;51.816;8.662;2023-02-02T01:22:04;17.17;;;2.23;;
21168;SDS011;10742;51.816;8.662;2023-02-02T01:25:06;14.50;;;2.10;;
21168;SDS011;10742;51.816;8.662;2023-02-02T01:28:08;15.00;;;2.27;;
21168;SDS011;10742;51.816;8.662;2023-02-02T01:31:14;10.10;;;2.00;;
21168;SDS011;10742;51.816;8.662;2023-02-02T01:34:17;14.57;;;2.30;;
21168;SDS011;10742;51.816;8.662;2023-02-02T01:37:20;16.70;;;2.60;;
21168;SDS011;10742;51.816;8.662;2023-02-02T01:40:22;9.37;;;1.90;;
21168;SDS011;10742;51.816;8.662;2023-02-02T01:43:26;14.77;;;2.00;;
21168;SDS011;10742;51.816;8.662;2023-02-02T01:46:50;9.53;;;2.03;;
21168;SDS011;10742;51.816;8.662;2023-02-02T01:49:53;12.93;;;2.17;;
21168;SDS011;10742;51.816;8.662;2023-02-02T01:52:57;8.27;;;2.00;;
21168;SDS011;10742;51.816;8.662;2023-02-02T01:56:01;10.10;;;2.00;;
21168;SDS011;10742;51.816;8.662;2023-02-02T01:59:06;8.57;;;1.80;;
21168;SDS011;10742;51.816;8.662;2023-02-02T02:02:10;10.03;;;2.03;;
21168;SDS011;10742;51.816;8.662;2023-02-02T02:05:14;11.13;;;2.20;;
21168;SDS011;10742;51.816;8.662;2023-02-02T02:08:30;13.67;;;2.40;;
21168;SDS011;10742;51.816;8.662;2023-02-02T02:11:38;9.40;;;2.03;;
21168;SDS011;10742;51.816;8.662;2023-02-02T02:14:45;11.37;;;1.90;;
21168;SDS011;10742;51.816;8.662;2023-02-02T02:18:28;13.27;;;2.03;;
21168;SDS011;10742;51.816;8.662;2023-02-02T02:25:41;11.73;;;1.90;;
21168;SDS011;10742;51.816;8.662;2023-02-02T02:33:38;11.87;;;1.80;;
21168;SDS011;10742;51.816;8.662;2023-02-02T02:40:32;8.03;;;1.80;;
21168;SDS011;10742;51.816;8.662;2023-02-02T02:43:40;11.77;;;2.53;;
21168;SDS011;10742;51.816;8.662;2023-02-02T02:46:48;11.87;;;1.83;;
21168;SDS011;10742;51.816;8.662;2023-02-02T02:49:52;8.93;;;1.90;;
21168;SDS011;10742;51.816;8.662;2023-02-02T02:52:59;10.23;;;1.70;;
21168;SDS011;10742;51.816;8.662;2023-02-02T03:06:43;10.03;;;1.73;;
21168;SDS011;10742;51.816;8.662;2023-02-02T03:09:58;6.87;;;1.50;;
21168;SDS011;10742;51.816;8.662;2023-02-02T03:13:05;9.47;;;1.77;;
21168;SDS011;10742;51.816;8.662;2023-02-02T03:16:10;13.93;;;2.57;;
21168;SDS011;10742;51.816;8.662;2023-02-02T03:19:12;14.40;;;2.00;;
21168;SDS011;10742;51.816;8.662;2023-02-02T03:22:14;8.53;;;1.83;;
21168;SDS011;10742;51.816;8.662;2023-02-02T03:25:17;6.97;;;1.70;;
21168;SDS011;10742;51.816;8.662;2023-02-02T03:28:19;11.00;;;2.07;;
21168;SDS011;10742;51.816;8.662;2023-02-02T03:31:24;12.07;;;2.20;;
21168;SDS011;10742;51.816;8.662;2023-02-02T03:34:28;11.13;;;2.00;;
21168;SDS011;10742;51.816;8.662;2023-02-02T03:37:30;9.50;;;1.90;;
21168;SDS011;10742;51.816;8.662;2023-02-02T03:40:33;7.70;;;1.80;;
21168;SDS011;10742;51.816;8.662;2023-02-02T03:43:35;10.57;;;2.10;;
21168;SDS011;10742;51.816;8.662;2023-02-02T03:46:37;10.37;;;1.87;;
21168;SDS011;10742;51.816;8.662;2023-02-02T03:49:40;14.17;;;2.43;;
21168;SDS011;10742;51.816;8.662;2023-02-02T03:52:42;9.80;;;2.33;;
21168;SDS011;10742;51.816;8.662;2023-02-02T03:55:44;12.83;;;2.33;;
21168;SDS011;10742;51.816;8.662;2023-02-02T03:58:46;11.60;;;2.80;;
21168;SDS011;10742;51.816;8.662;2023-02-02T04:01:49;9.63;;;2.20;;
21168;SDS011;10742;51.816;8.662;2023-02-02T04:04:51;8.63;;;2.40;;
21168;SDS011;10742;51.816;8.662;2023-02-02T04:07:53;12.50;;;2.30;;
21168;SDS011;10742;51.816;8.662;2023-02-02T04:10:56;7.80;;;2.07;;
21168;SDS011;10742;51.816;8.662;2023-02-02T04:13:58;12.47;;;2.30;;
21168;SDS011;10742;51.816;8.662;2023-02-02T04:17:00;13.27;;;2.30;;
21168;SDS011;10742;51.816;8.662;2023-02-02T04:20:03;10.83;;;2.60;;
21168;SDS011;10742;51.816;8.662;2023-02-02T04:23:06;17.20;;;2.57;;
21168;SDS011;10742;51.816;8.662;2023-02-02T04:26:09;11.40;;;2.57;;
21168;SDS011;10742;51.816;8.662;2023-02-02T04:29:11;12.43;;;2.63;;
21168;SDS011;10742;51.816;8.662;2023-02-02T04:32:14;13.63;;;2.90;;
21168;SDS011;10742;51.816;8.662;2023-02-02T04:35:18;14.80;;;2.43;;
21168;SDS011;10742;51.816;8.662;2023-02-02T04:38:20;8.53;;;2.50;;
21168;SDS011;10742;51.816;8.662;2023-02-02T04:41:23;16.63;;;3.20;;
21168;SDS011;10742;51.816;8.662;2023-02-02T04:44:25;8.97;;;2.97;;
21168;SDS011;10742;51.816;8.662;2023-02-02T04:47:27;17.03;;;3.47;;
21168;SDS011;10742;51.816;8.662;2023-02-02T04:50:30;16.40;;;2.97;;
21168;SDS011;10742;51.816;8.662;2023-02-02T04:53:33;11.73;;;3.10;;
21168;SDS011;10742;51.816;8.662;2023-02-02T04:56:35;9.53;;;2.40;;
21168;SDS011;10742;51.816;8.662;2023-02-02T04:59:37;10.97;;;3.23;;
21168;SDS011;10742;51.816;8.662;2023-02-02T05:02:42;12.33;;;2.73;;
21168;SDS011;10742;51.816;8.662;2023-02-02T05:05:45;14.27;;;2.57;;
21168;SDS011;10742;51.816;8.662;2023-02-02T05:08:47;13.57;;;2.70;;
21168;SDS011;10742;51.816;8.662;2023-02-02T05:11:50;12.73;;;2.60;;
21168;SDS011;10742;51.816;8.662;2023-02-02T05:14:52;13.60;;;2.90;;
21168;SDS011;10742;51.816;8.662;2023-02-02T05:17:55;14.67;;;2.73;;
21168;SDS011;10742;51.816;8.662;2023-02-02T05:21:03;13.23;;;2.97;;
21168;SDS011;10742;51.816;8.662;2023-02-02T05:24:06;15.67;;;3.00;;
21168;SDS011;10742;51.816;8.662;2023-02-02T05:27:08;13.43;;;3.27;;
21168;SDS011;10742;51.816;8.662;2023-02-02T05:30:11;12.13;;;2.83;;
21168;SDS011;10742;51.816;8.662;2023-02-02T05:33:15;10.27;;;2.40;;
21168;SDS011;10742;51.816;8.662;2023-02-02T05:36:19;13.40;;;2.93;;
21168;SDS011;10742;51.816;8.662;2023-02-02T05:39:22;13.40;;;2.60;;
21168;SDS011;10742;51.816;8.662;2023-02-02T05:42:24;12.13;;;2.73;;
21168;SDS011;10742;51.816;8.662;2023-02-02T05:45:26;11.67;;;2.77;;
21168;SDS011;10742;51.816;8.662;2023-02-02T05:48:29;11.67;;;2.90;;
21168;SDS011;10742;51.816;8.662;2023-02-02T05:51:38;12.40;;;2.73;;
21168;SDS011;10742;51.816;8.662;2023-02-02T05:54:44;10.40;;;3.13;;
21168;SDS011;10742;51.816;8.662;2023-02-02T05:57:47;13.10;;;3.07;;
21168;SDS011;10742;51.816;8.662;2023-02-02T06:00:49;12.80;;;3.00;;
21168;SDS011;10742;51.816;8.662;2023-02-02T06:03:52;9.50;;;2.57;;
21168;SDS011;10742;51.816;8.662;2023-02-02T06:06:54;10.63;;;2.97;;
21168;SDS011;10742;51.816;8.662;2023-02-02T06:09:56;15.33;;;2.70;;
21168;SDS011;10742;51.816;8.662;2023-02-02T06:12:59;16.67;;;3.13;;
21168;SDS011;10742;51.816;8.662;2023-02-02T06:16:01;15.67;;;3.47;;
21168;SDS011;10742;51.816;8.662;2023-02-02T06:19:03;17.60;;;2.77;;
21168;SDS011;10742;51.816;8.662;2023-02-02T06:22:06;16.60;;;3.60;;
21168;SDS011;10742;51.816;8.662;2023-02-02T06:25:08;17.70;;;3.90;;
21168;SDS011;10742;51.816;8.662;2023-02-02T06:28:10;13.87;;;3.57;;
21168;SDS011;10742;51.816;8.662;2023-02-02T06:31:13;17.60;;;3.23;;
21168;SDS011;10742;51.816;8.662;2023-02-02T06:34:19;13.53;;;3.00;;
21168;SDS011;10742;51.816;8.662;2023-02-02T06:37:22;8.57;;;2.83;;
21168;SDS011;10742;51.816;8.662;2023-02-02T06:40:24;9.43;;;2.40;;
21168;SDS011;10742;51.816;8.662;2023-02-02T06:43:28;5.60;;;2.00;;
21168;SDS011;10742;51.816;8.662;2023-02-02T06:46:31;9.90;;;2.57;;
21168;SDS011;10742;51.816;8.662;2023-02-02T06:49:33;9.60;;;2.10;;
21168;SDS011;10742;51.816;8.662;2023-02-02T06:52:35;7.77;;;1.90;;
21168;SDS011;10742;51.816;8.662;2023-02-02T06:55:38;3.53;;;1.70;;
21168;SDS011;10742;51.816;8.662;2023-02-02T06:58:41;5.63;;;1.77;;
21168;SDS011;10742;51.816;8.662;2023-02-02T07:01:43;9.13;;;2.33;;
21168;SDS011;10742;51.816;8.662;2023-02-02T07:04:45;6.03;;;1.70;;
21168;SDS011;10742;51.816;8.662;2023-02-02T07:07:48;7.80;;;1.57;;
21168;SDS011;10742;51.816;8.662;2023-02-02T07:10:51;7.00;;;1.53;;
21168;SDS011;10742;51.816;8.662;2023-02-02T07:13:54;9.03;;;1.60;;
21168;SDS011;10742;51.816;8.662;2023-02-02T07:16:56;9.33;;;1.77;;
21168;SDS011;10742;51.816;8.662;2023-02-02T07:19:59;7.47;;;1.60;;
21168;SDS011;10742;51.816;8.662;2023-02-02T07:23:02;6.23;;;1.67;;
21168;SDS011;10742;51.816;8.662;2023-02-02T07:26:06;7.33;;;1.60;;
21168;SDS011;10742;51.816;8.662;2023-02-02T07:29:12;4.27;;;1.43;;
21168;SDS011;10742;51.816;8.662;2023-02-02T07:32:16;12.30;;;2.20;;
21168;SDS011;10742;51.816;8.662;2023-02-02T07:35:18;12.27;;;2.97;;
21168;SDS011;10742;51.816;8.662;2023-02-02T07:38:20;4.47;;;1.70;;
21168;SDS011;10742;51.816;8.662;2023-02-02T07:41:23;7.50;;;1.60;;
21168;SDS011;10742;51.816;8.662;2023-02-02T07:44:26;6.57;;;1.70;;
21168;SDS011;10742;51.816;8.662;2023-02-02T07:47:28;6.00;;;1.63;;
21168;SDS011;10742;51.816;8.662;2023-02-02T07:50:31;8.23;;;1.70;;
21168;SDS011;10742;51.816;8.662;2023-02-02T07:53:33;3.27;;;1.43;;
21168;SDS011;10742;51.816;8.662;2023-02-02T07:56:37;10.23;;;2.10;;
21168;SDS011;10742;51.816;8.662;2023-02-02T07:59:40;10.77;;;2.27;;
21168;SDS011;10742;51.816;8.662;2023-02-02T08:02:43;7.50;;;2.20;;
21168;SDS011;10742;51.816;8.662;2023-02-02T08:05:45;13.00;;;3.57;;
21168;SDS011;10742;51.816;8.662;2023-02-02T08:08:48;18.73;;;4.20;;
21168;SDS011;10742;51.816;8.662;2023-02-02T08:11:50;8.83;;;3.00;;
21168;SDS011;10742;51.816;8.662;2023-02-02T08:14:53;10.50;;;2.03;;
21168;SDS011;10742;51.816;8.662;2023-02-02T08:17:55;10.60;;;1.70;;
21168;SDS011;10742;51.816;8.662;2023-02-02T08:21:01;5.40;;;1.30;;
21168;SDS011;10742;51.816;8.662;2023-02-02T08:24:04;5.83;;;1.60;;
21168;SDS011;10742;51.816;8.662;2023-02-02T08:27:06;2.40;;;1.30;;
21168;SDS011;10742;51.816;8.662;2023-02-02T08:30:09;4.90;;;1.30;;
21168;SDS011;10742;51.816;8.662;2023-02-02T08:33:13;3.73;;;1.30;;
21168;SDS011;10742;51.816;8.662;2023-02-02T08:36:17;3.83;;;1.30;;
21168;SDS011;10742;51.816;8.662;2023-02-02T08:39:21;5.33;;;1.57;;
21168;SDS011;10742;51.816;8.662;2023-02-02T08:42:25;4.77;;;1.37;;
21168;SDS011;10742;51.816;8.662;2023-02-02T08:45:27;4.47;;;1.40;;
21168;SDS011;10742;51.816;8.662;2023-02-02T08:48:30;4.50;;;1.60;;
21168;SDS011;10742;51.816;8.662;2023-02-02T08:51:32;3.53;;;1.50;;
21168;SDS011;10742;51.816;8.662;2023-02-02T08:54:35;3.87;;;1.70;;
21168;SDS011;10742;51.816;8.662;2023-02-02T08:57:37;5.57;;;1.80;;
21168;SDS011;10742;51.816;8.662;2023-02-02T09:00:39;6.03;;;1.70;;
21168;SDS011;10742;51.816;8.662;2023-02-02T09:03:43;2.50;;;1.50;;
21168;SDS011;10742;51.816;8.662;2023-02-02T09:06:45;5.37;;;2.03;;
21168;SDS011;10742;51.816;8.662;2023-02-02T09:09:48;4.63;;;1.80;;
21168;SDS011;10742;51.816;8.662;2023-02-02T09:12:52;5.53;;;1.97;;
21168;SDS011;10742;51.816;8.662;2023-02-02T09:15:57;6.00;;;1.83;;
21168;SDS011;10742;51.816;8.662;2023-02-02T09:19:01;7.23;;;2.17;;
21168;SDS011;10742;51.816;8.662;2023-02-02T09:22:04;6.10;;;2.10;;
21168;SDS011;10742;51.816;8.662;2023-02-02T09:25:06;5.63;;;1.97;;
21168;SDS011;10742;51.816;8.662;2023-02-02T09:28:09;3.37;;;1.60;;
21168;SDS011;10742;51.816;8.662;2023-02-02T09:31:12;7.80;;;1.90;;
21168;SDS011;10742;51.816;8.662;2023-02-02T09:34:16;6.77;;;1.87;;
21168;SDS011;10742;51.816;8.662;2023-02-02T09:37:18;4.20;;;2.13;;
21168;SDS011;10742;51.816;8.662;2023-02-02T09:40:21;11.30;;;2.37;;
21168;SDS011;10742;51.816;8.662;2023-02-02T09:46:44;5.80;;;2.40;;
21168;SDS011;10742;51.816;8.662;2023-02-02T09:50:17;10.63;;;3.43;;
21168;SDS011;10742;51.816;8.662;2023-02-02T09:53:36;9.30;;;3.23;;
21168;SDS011;10742;51.816;8.662;2023-02-02T09:56:56;5.70;;;2.30;;
21168;SDS011;10742;51.816;8.662;2023-02-02T10:00:01;4.40;;;2.00;;
21168;SDS011;10742;51.816;8.662;2023-02-02T10:03:16;5.43;;;2.33;;
21168;SDS011;10742;51.816;8.662;2023-02-02T10:06:25;4.73;;;2.47;;
21168;SDS011;10742;51.816;8.662;2023-02-02T10:12:55;5.17;;;2.43;;
21168;SDS011;10742;51.816;8.662;2023-02-02T10:16:03;6.70;;;2.17;;
21168;SDS011;10742;51.816;8.662;2023-02-02T10:19:13;7.33;;;2.30;;
21168;SDS011;10742;51.816;8.662;2023-02-02T10:22:18;12.53;;;4.23;;
21168;SDS011;10742;51.816;8.662;2023-02-02T10:25:25;15.00;;;3.50;;
21168;SDS011;10742;51.816;8.662;2023-02-02T10:28:43;10.13;;;3.90;;
21168;SDS011;10742;51.816;8.662;2023-02-02T10:32:20;9.10;;;3.37;;
21168;SDS011;10742;51.816;8.662;2023-02-02T10:45:19;6.60;;;3.87;;
21168;SDS011;10742;51.816;8.662;2023-02-02T10:48:25;6.73;;;2.93;;
21168;SDS011;10742;51.816;8.662;2023-02-02T10:51:33;7.90;;;2.67;;
21168;SDS011;10742;51.816;8.662;2023-02-02T10:58:07;6.10;;;2.13;;
21168;SDS011;10742;51.816;8.662;2023-02-02T11:01:14;5.97;;;1.90;;
21168;SDS011;10742;51.816;8.662;2023-02-02T11:04:19;4.53;;;1.70;;
21168;SDS011;10742;51.816;8.662;2023-02-02T11:07:41;8.30;;;2.30;;
21168;SDS011;10742;51.816;8.662;2023-02-02T11:10:44;5.17;;;1.97;;
21168;SDS011;10742;51.816;8.662;2023-02-02T11:13:50;4.43;;;1.83;;
21168;SDS011;10742;51.816;8.662;2023-02-02T11:17:03;8.03;;;2.20;;
21168;SDS011;10742;51.816;8.662;2023-02-02T11:20:52;7.37;;;2.20;;
21168;SDS011;10742;51.816;8.662;2023-02-02T11:23:34;9.37;;;2.00;;
21168;SDS011;10742;51.816;8.662;2023-02-02T11:26:46;6.47;;;2.10;;
21168;SDS011;10742;51.816;8.662;2023-02-02T11:29:52;6.07;;;2.13;;
21168;SDS011;10742;51.816;8.662;2023-02-02T11:32:56;5.97;;;2.00;;
21168;SDS011;10742;51.816;8.662;2023-02-02T11:39:14;6.97;;;1.93;;
21168;SDS011;10742;51.816;8.662;2023-02-02T11:42:22;8.73;;;1.93;;
21168;SDS011;10742;51.816;8.662;2023-02-02T11:45:35;11.40;;;2.67;;
21168;SDS011;10742;51.816;8.662;2023-02-02T11:48:46;11.27;;;4.03;;
21168;SDS011;10742;51.816;8.662;2023-02-02T11:51:57;10.67;;;3.30;;
21168;SDS011;10742;51.816;8.662;2023-02-02T11:55:07;8.23;;;3.67;;
21168;SDS011;10742;51.816;8.662;2023-02-02T11:58:22;11.37;;;3.50;;
21168;SDS011;10742;51.816;8.662;2023-02-02T12:01:29;9.43;;;3.20;;
21168;SDS011;10742;51.816;8.662;2023-02-02T12:04:34;6.37;;;3.30;;
21168;SDS011;10742;51.816;8.662;2023-02-02T12:07:37;14.73;;;3.70;;
21168;SDS011;10742;51.816;8.662;2023-02-02T12:10:42;9.13;;;2.87;;
21168;SDS011;10742;51.816;8.662;2023-02-02T12:17:38;12.03;;;3.83;;
21168;SDS011;10742;51.816;8.662;2023-02-02T12:20:50;8.53;;;2.90;;
21168;SDS011;10742;51.816;8.662;2023-02-02T12:27:44;9.73;;;3.17;;
21168;SDS011;10742;51.816;8.662;2023-02-02T12:31:02;12.87;;;3.60;;
21168;SDS011;10742;51.816;8.662;2023-02-02T12:34:22;9.50;;;4.13;;
21168;SDS011;10742;51.816;8.662;2023-02-02T12:44:34;7.87;;;3.03;;
21168;SDS011;10742;51.816;8.662;2023-02-02T12:51:20;8.10;;;2.70;;
21168;SDS011;10742;51.816;8.662;2023-02-02T12:58:38;8.87;;;3.00;;
21168;SDS011;10742;51.816;8.662;2023-02-02T13:08:41;8.40;;;3.57;;
21168;SDS011;10742;51.816;8.662;2023-02-02T13:11:53;14.30;;;5.60;;
21168;SDS011;10742;51.816;8.662;2023-02-02T13:15:02;10.97;;;4.23;;
21168;SDS011;10742;51.816;8.662;2023-02-02T13:18:11;14.20;;;5.27;;
21168;SDS011;10742;51.816;8.662;2023-02-02T13:21:26;12.17;;;4.70;;
21168;SDS011;10742;51.816;8.662;2023-02-02T13:24:31;10.13;;;3.43;;
21168;SDS011;10742;51.816;8.662;2023-02-02T13:27:37;9.50;;;3.80;;
21168;SDS011;10742;51.816;8.662;2023-02-02T13:30:40;9.27;;;3.20;;
21168;SDS011;10742;51.816;8.662;2023-02-02T13:33:47;6.73;;;3.27;;
21168;SDS011;10742;51.816;8.662;2023-02-02T13:40:39;9.60;;;3.13;;
21168;SDS011;10742;51.816;8.662;2023-02-02T13:47:10;4.63;;;2.23;;
21168;SDS011;10742;51.816;8.662;2023-02-02T13:50:21;6.20;;;2.70;;
21168;SDS011;10742;51.816;8.662;2023-02-02T13:53:36;10.57;;;3.07;;
21168;SDS011;10742;51.816;8.662;2023-02-02T14:00:39;6.70;;;2.53;;
21168;SDS011;10742;51.816;8.662;2023-02-02T14:03:55;6.00;;;2.47;;
21168;SDS011;10742;51.816;8.662;2023-02-02T14:07:00;11.40;;;2.80;;
21168;SDS011;10742;51.816;8.662;2023-02-02T14:10:04;5.50;;;2.17;;
21168;SDS011;10742;51.816;8.662;2023-02-02T14:22:46;7.13;;;2.23;;
21168;SDS011;10742;51.816;8.662;2023-02-02T14:26:05;8.20;;;2.60;;
21168;SDS011;10742;51.816;8.662;2023-02-02T14:32:40;7.50;;;2.63;;
21168;SDS011;10742;51.816;8.662;2023-02-02T14:38:52;6.33;;;2.50;;
21168;SDS011;10742;51.816;8.662;2023-02-02T14:42:12;7.67;;;2.40;;
21168;SDS011;10742;51.816;8.662;2023-02-02T14:45:41;4.67;;;2.23;;
21168;SDS011;10742;51.816;8.662;2023-02-02T14:51:58;6.40;;;2.43;;
21168;SDS011;10742;51.816;8.662;2023-02-02T14:55:03;7.70;;;2.10;;
21168;SDS011;10742;51.816;8.662;2023-02-02T14:58:09;7.20;;;2.50;;
21168;SDS011;10742;51.816;8.662;2023-02-02T15:01:24;8.10;;;2.30;;
21168;SDS011;10742;51.816;8.662;2023-02-02T15:04:30;9.40;;;2.83;;
21168;SDS011;10742;51.816;8.662;2023-02-02T15:13:58;7.87;;;3.00;;
21168;SDS011;10742;51.816;8.662;2023-02-02T15:23:39;8.33;;;3.20;;
21168;SDS011;10742;51.816;8.662;2023-02-02T15:26:44;7.57;;;2.97;;
21168;SDS011;10742;51.816;8.662;2023-02-02T15:29:48;5.83;;;2.70;;
21168;SDS011;10742;51.816;8.662;2023-02-02T15:32:57;6.57;;;3.00;;
21168;SDS011;10742;51.816;8.662;2023-02-02T15:36:03;15.23;;;5.07;;
21168;SDS011;10742;51.816;8.662;2023-02-02T15:39:24;8.07;;;3.20;;
21168;SDS011;10742;51.816;8.662;2023-02-02T15:42:57;33.70;;;7.30;;
21168;SDS011;10742;51.816;8.662;2023-02-02T15:46:08;15.83;;;4.67;;
21168;SDS011;10742;51.816;8.662;2023-02-02T15:52:41;17.60;;;5.73;;
21168;SDS011;10742;51.816;8.662;2023-02-02T15:55:48;13.43;;;4.23;;
21168;SDS011;10742;51.816;8.662;2023-02-02T15:58:52;22.20;;;6.97;;
21168;SDS011;10742;51.816;8.662;2023-02-02T16:02:02;14.20;;;5.07;;
21168;SDS011;10742;51.816;8.662;2023-02-02T16:05:26;26.90;;;9.07;;
21168;SDS011;10742;51.816;8.662;2023-02-02T16:08:48;17.07;;;6.00;;
21168;SDS011;10742;51.816;8.662;2023-02-02T16:11:51;16.43;;;5.87;;
21168;SDS011;10742;51.816;8.662;2023-02-02T16:14:54;13.63;;;5.50;;
21168;SDS011;10742;51.816;8.662;2023-02-02T16:18:00;14.13;;;5.53;;
21168;SDS011;10742;51.816;8.662;2023-02-02T16:21:07;14.37;;;5.50;;
21168;SDS011;10742;51.816;8.662;2023-02-02T16:24:18;20.43;;;7.40;;
21168;SDS011;10742;51.816;8.662;2023-02-02T16:27:24;32.33;;;12.43;;
21168;SDS011;10742;51.816;8.662;2023-02-02T16:30:30;16.10;;;6.33;;
21168;SDS011;10742;51.816;8.662;2023-02-02T16:33:37;24.77;;;10.10;;
21168;SDS011;10742;51.816;8.662;2023-02-02T16:36:42;25.57;;;9.40;;
21168;SDS011;10742;51.816;8.662;2023-02-02T16:39:45;29.57;;;11.40;;
21168;SDS011;10742;51.816;8.662;2023-02-02T16:42:47;22.97;;;8.33;;
21168;SDS011;10742;51.816;8.662;2023-02-02T16:46:09;20.03;;;6.43;;
21168;SDS011;10742;51.816;8.662;2023-02-02T16:49:17;11.27;;;4.60;;
21168;SDS011;10742;51.816;8.662;2023-02-02T16:52:24;18.67;;;5.90;;
21168;SDS011;10742;51.816;8.662;2023-02-02T16:55:27;18.73;;;6.10;;
21168;SDS011;10742;51.816;8.662;2023-02-02T16:58:48;22.87;;;8.03;;
21168;SDS011;10742;51.816;8.662;2023-02-02T17:01:51;22.00;;;7.60;;
21168;SDS011;10742;51.816;8.662;2023-02-02T17:05:02;32.33;;;10.13;;
21168;SDS011;10742;51.816;8.662;2023-02-02T17:08:08;45.20;;;15.63;;
21168;SDS011;10742;51.816;8.662;2023-02-02T17:14:26;25.67;;;7.87;;
21168;SDS011;10742;51.816;8.662;2023-02-02T17:17:31;103.83;;;25.40;;
21168;SDS011;10742;51.816;8.662;2023-02-02T17:20:34;33.33;;;10.63;;
21168;SDS011;10742;51.816;8.662;2023-02-02T17:23:36;25.63;;;8.63;;
21168;SDS011;10742;51.816;8.662;2023-02-02T17:26:40;29.70;;;8.13;;
21168;SDS011;10742;51.816;8.662;2023-02-02T17:29:44;46.60;;;12.83;;
21168;SDS011;10742;51.816;8.662;2023-02-02T17:32:47;83.80;;;21.50;;
21168;SDS011;10742;51.816;8.662;2023-02-02T17:35:49;60.77;;;16.70;;
21168;SDS011;10742;51.816;8.662;2023-02-02T17:38:56;65.97;;;19.37;;
21168;SDS011;10742;51.816;8.662;2023-02-02T17:41:59;32.73;;;10.63;;
21168;SDS011;10742;51.816;8.662;2023-02-02T17:45:01;57.57;;;17.03;;
21168;SDS011;10742;51.816;8.662;2023-02-02T17:48:05;46.00;;;15.90;;
21168;SDS011;10742;51.816;8.662;2023-02-02T17:51:12;43.93;;;15.07;;
21168;SDS011;10742;51.816;8.662;2023-02-02T17:54:16;44.97;;;15.07;;
21168;SDS011;10742;51.816;8.662;2023-02-02T17:57:19;59.40;;;18.33;;
21168;SDS011;10742;51.816;8.662;2023-02-02T18:00:22;52.77;;;16.83;;
21168;SDS011;10742;51.816;8.662;2023-02-02T18:03:27;35.47;;;12.80;;
21168;SDS011;10742;51.816;8.662;2023-02-02T18:06:35;26.17;;;9.60;;
21168;SDS011;10742;51.816;8.662;2023-02-02T18:09:38;34.73;;;11.67;;
21168;SDS011;10742;51.816;8.662;2023-02-02T18:12:41;24.87;;;9.40;;
21168;SDS011;10742;51.816;8.662;2023-02-02T18:15:43;29.17;;;10.93;;
21168;SDS011;10742;51.816;8.662;2023-02-02T18:18:46;34.37;;;11.70;;
21168;SDS011;10742;51.816;8.662;2023-02-02T18:21:48;40.90;;;14.83;;
21168;SDS011;10742;51.816;8.662;2023-02-02T18:24:51;38.03;;;14.50;;
21168;SDS011;10742;51.816;8.662;2023-02-02T18:27:53;26.53;;;9.03;;
21168;SDS011;10742;51.816;8.662;2023-02-02T18:30:58;40.57;;;14.53;;
21168;SDS011;10742;51.816;8.662;2023-02-02T18:34:00;40.17;;;14.20;;
21168;SDS011;10742;51.816;8.662;2023-02-02T18:37:03;49.00;;;15.90;;
21168;SDS011;10742;51.816;8.662;2023-02-02T18:40:05;100.93;;;29.53;;
21168;SDS011;10742;51.816;8.662;2023-02-02T18:43:09;34.87;;;15.10;;
21168;SDS011;10742;51.816;8.662;2023-02-02T18:46:12;27.30;;;11.40;;
21168;SDS011;10742;51.816;8.662;2023-02-02T18:49:16;29.87;;;12.30;;
21168;SDS011;10742;51.816;8.662;2023-02-02T18:52:19;21.80;;;9.60;;
21168;SDS011;10742;51.816;8.662;2023-02-02T18:55:21;17.10;;;7.80;;
21168;SDS011;10742;51.816;8.662;2023-02-02T18:58:24;16.20;;;6.90;;
21168;SDS011;10742;51.816;8.662;2023-02-02T19:01:28;34.50;;;15.27;;
21168;SDS011;10742;51.816;8.662;2023-02-02T19:04:30;34.03;;;15.27;;
21168;SDS011;10742;51.816;8.662;2023-02-02T19:07:33;27.70;;;12.60;;
21168;SDS011;10742;51.816;8.662;2023-02-02T19:10:57;76.43;;;36.67;;
21168;SDS011;10742;51.816;8.662;2023-02-02T19:14:04;47.57;;;24.23;;
21168;SDS011;10742;51.816;8.662;2023-02-02T19:20:21;24.73;;;11.67;;
21168;SDS011;10742;51.816;8.662;2023-02-02T19:23:28;23.20;;;11.03;;
21168;SDS011;10742;51.816;8.662;2023-02-02T19:26:32;22.70;;;11.17;;
21168;SDS011;10742;51.816;8.662;2023-02-02T19:29:38;19.53;;;9.03;;
21168;SDS011;10742;51.816;8.662;2023-02-02T19:32:41;19.77;;;9.13;;
21168;SDS011;10742;51.816;8.662;2023-02-02T19:35:45;18.63;;;8.80;;
21168;SDS011;10742;51.816;8.662;2023-02-02T19:38:51;23.33;;;9.93;;
21168;SDS011;10742;51.816;8.662;2023-02-02T19:41:57;18.10;;;8.97;;
21168;SDS011;10742;51.816;8.662;2023-02-02T19:45:04;18.33;;;9.13;;
21168;SDS011;10742;51.816;8.662;2023-02-02T19:48:24;22.57;;;9.43;;
21168;SDS011;10742;51.816;8.662;2023-02-02T19:55:25;23.83;;;11.90;;
21168;SDS011;10742;51.816;8.662;2023-02-02T19:58:33;22.43;;;10.50;;
21168;SDS011;10742;51.816;8.662;2023-02-02T20:01:38;24.77;;;12.97;;
21168;SDS011;10742;51.816;8.662;2023-02-02T20:04:41;22.00;;;10.33;;
21168;SDS011;10742;51.816;8.662;2023-02-02T20:07:43;21.13;;;10.17;;
21168;SDS011;10742;51.816;8.662;2023-02-02T20:10:46;23.00;;;10.13;;
21168;SDS011;10742;51.816;8.662;2023-02-02T20:13:48;21.17;;;10.50;;
21168;SDS011;10742;51.816;8.662;2023-02-02T20:16:53;18.80;;;9.20;;
21168;SDS011;10742;51.816;8.662;2023-02-02T20:20:04;19.17;;;8.83;;
21168;SDS011;10742;51.816;8.662;2023-02-02T20:23:37;19.57;;;9.37;;
21168;SDS011;10742;51.816;8.662;2023-02-02T20:26:44;16.90;;;8.67;;
21168;SDS011;10742;51.816;8.662;2023-02-02T20:29:48;15.07;;;8.20;;
21168;SDS011;10742;51.816;8.662;2023-02-02T20:32:52;17.77;;;8.37;;
21168;SDS011;10742;51.816;8.662;2023-02-02T20:35:57;20.63;;;9.73;;
21168;SDS011;10742;51.816;8.662;2023-02-02T20:39:10;21.40;;;9.57;;
21168;SDS011;10742;51.816;8.662;2023-02-02T20:42:23;14.67;;;7.67;;